Time;durP1;ratioP1;P1;durP2;ratioP2;P2;SDS_P1;SDS_P2;PMS_P1;PMS_P2;Temp;Humidity;BMP_temperature;BMP_pressure;BME280_temperature;BME280_humidity;BME280_pressure;Samples;Min_cycle;Max_cycle;Signal;HPM_P1;HPM_P2
2021/12/26 00:04:18;;;;;;;;;;;-3.40;99.90;;;;;;10205473;28;84875;-54
2021/12/26 00:09:18;;;;;;;;;;;-3.40;99.90;;;;;;10205225;28;84846;-52
2021/12/26 00:14:19;;;;;;;;;;;-3.40;99.90;;;;;;10205469;28;85213;-53
2021/12/26 00:19:20;;;;;;;;;;;-3.30;99.90;;;;;;10204696;28;84961;-55
2021/12/26 00:24:20;;;;;;;;;;;-3.30;99.90;;;;;;10205307;28;84232;-51
2021/12/26 00:29:21;;;;;;;;;;;-3.40;99.90;;;;;;10204074;28;84123;-58
2021/12/26 00:34:21;;;;;;;;;;;-3.40;99.90;;;;;;10203586;28;86212;-53
2021/12/26 00:39:22;;;;;;;;;;;-3.40;99.90;;;;;;10202231;28;84120;-54
2021/12/26 00:44:22;;;;;;;;;;;-3.30;99.90;;;;;;10186811;28;86055;-55
2021/12/26 00:49:23;;;;;;;;;;;-3.40;99.90;;;;;;10201912;28;86017;-53
2021/12/26 00:54:24;;;;;;;;;;;-3.30;99.90;;;;;;10202977;28;85921;-54
2021/12/26 00:59:26;;;;;;;;;;;-3.30;99.90;;;;;;10202534;28;86810;-55
2021/12/26 01:04:26;;;;;;;;;;;-3.30;99.90;;;;;;10202422;28;86942;-53
2021/12/26 01:09:29;;;;;;;;;;;-3.40;99.90;;;;;;10203622;28;84091;-52
2021/12/26 01:14:32;;;;;;;;;;;-3.40;99.90;;;;;;10202848;28;86604;-54
2021/12/26 01:19:43;;;;;;;;;;;-3.40;99.90;;;;;;10203892;28;84064;-54
2021/12/26 01:24:44;;;;;;;;;;;-3.40;99.90;;;;;;10201961;28;85983;-53
2021/12/26 01:29:45;;;;;;;;;;;-3.30;99.90;;;;;;10202155;28;87033;-54
2021/12/26 01:34:46;;;;;;;;;;;-3.30;99.90;;;;;;10201957;28;86724;-53
2021/12/26 01:39:53;;;;;;;;;;;-3.30;99.90;;;;;;10206781;28;85360;-55
2021/12/26 01:45:08;;;;;;;;;;;-3.30;99.90;;;;;;10208562;28;85787;-52
2021/12/26 01:50:19;;;;;;;;;;;-3.30;99.90;;;;;;10208273;28;85201;-53
2021/12/26 01:55:23;;;;;;;;;;;-3.20;99.90;;;;;;10208322;28;86711;-58
2021/12/26 02:00:25;;;;;;;;;;;-3.20;99.90;;;;;;10207922;28;86820;-55
2021/12/26 02:05:25;;;;;;;;;;;-3.20;99.90;;;;;;10209533;28;84765;-52
2021/12/26 02:10:32;;;;;;;;;;;-3.30;99.90;;;;;;10207305;28;85954;-55
2021/12/26 02:15:33;;;;;;;;;;;-3.30;99.90;;;;;;10207460;28;85051;-53
2021/12/26 02:21:01;;;;;;;;;;;-3.30;99.90;;;;;;10206642;28;86781;-51
2021/12/26 02:31:15;;;;;;;;;;;-3.30;99.90;;;;;;10207546;28;86562;-53
2021/12/26 02:36:16;;;;;;;;;;;-3.30;99.90;;;;;;10206680;28;86751;-55
2021/12/26 02:41:17;;;;;;;;;;;-3.40;99.90;;;;;;10205978;28;86941;-53
2021/12/26 02:46:18;;;;;;;;;;;-3.40;99.90;;;;;;10206599;28;85946;-55
2021/12/26 02:51:19;;;;;;;;;;;-3.30;99.90;;;;;;10206278;28;87154;-53
2021/12/26 02:56:20;;;;;;;;;;;-3.40;99.90;;;;;;10206782;28;86911;-55
2021/12/26 03:01:22;;;;;;;;;;;-3.40;99.90;;;;;;10206630;28;86842;-55
2021/12/26 03:06:34;;;;;;;;;;;-3.40;99.90;;;;;;10205855;28;86975;-54
2021/12/26 03:11:38;;;;;;;;;;;-3.40;99.90;;;;;;10206295;28;85761;-52
2021/12/26 03:16:45;;;;;;;;;;;-3.40;99.90;;;;;;10206637;28;84248;-54
2021/12/26 03:21:49;;;;;;;;;;;-3.40;99.90;;;;;;10206862;28;84985;-55
2021/12/26 03:26:49;;;;;;;;;;;-3.40;99.90;;;;;;10205450;28;84733;-55
2021/12/26 03:31:50;;;;;;;;;;;-3.50;99.90;;;;;;10205631;28;86927;-51
2021/12/26 03:36:53;;;;;;;;;;;-3.40;99.90;;;;;;10205207;28;86778;-56
2021/12/26 03:41:57;;;;;;;;;;;-3.50;99.90;;;;;;10204763;28;86662;-53
2021/12/26 03:46:57;;;;;;;;;;;-3.50;99.90;;;;;;10205006;28;87126;-55
2021/12/26 03:51:58;;;;;;;;;;;-3.50;99.90;;;;;;10204382;28;86753;-54
2021/12/26 03:57:00;;;;;;;;;;;-3.40;99.90;;;;;;10204571;28;86875;-54
2021/12/26 04:02:01;;;;;;;;;;;-3.50;99.90;;;;;;10203221;28;85868;-51
2021/12/26 04:07:02;;;;;;;;;;;-3.40;99.90;;;;;;10204570;28;86506;-54
2021/12/26 04:12:03;;;;;;;;;;;-3.40;99.90;;;;;;10204095;28;85887;-56
2021/12/26 04:17:04;;;;;;;;;;;-3.40;99.90;;;;;;10205369;28;84944;-55
2021/12/26 04:22:08;;;;;;;;;;;-3.30;99.90;;;;;;10205742;28;85069;-53
2021/12/26 04:27:09;;;;;;;;;;;-3.30;99.90;;;;;;10205759;28;85785;-51
2021/12/26 04:32:10;;;;;;;;;;;-3.30;99.90;;;;;;10204158;28;86140;-53
2021/12/26 04:37:11;;;;;;;;;;;-3.20;99.90;;;;;;10205470;28;84089;-55
2021/12/26 04:42:11;;;;;;;;;;;-3.20;99.90;;;;;;10202903;28;86827;-56
2021/12/26 04:47:36;;;;;;;;;;;-3.20;99.90;;;;;;10203262;28;85997;-56
2021/12/26 04:52:39;;;;;;;;;;;-3.30;99.90;;;;;;10203701;28;85976;-53
2021/12/26 04:57:40;;;;;;;;;;;-3.30;99.90;;;;;;10202846;28;87113;-53
2021/12/26 05:02:41;;;;;;;;;;;-3.20;99.90;;;;;;10203453;28;86902;-51
2021/12/26 05:07:42;;;;;;;;;;;-3.20;99.90;;;;;;10204593;28;84256;-52
2021/12/26 05:12:43;;;;;;;;;;;-3.20;99.90;;;;;;10205585;28;85898;-52
2021/12/26 05:17:44;;;;;;;;;;;-3.20;99.90;;;;;;10212953;28;84190;-53
2021/12/26 05:22:49;;;;;;;;;;;-3.20;99.90;;;;;;10211212;28;87258;-52
2021/12/26 05:27:51;;;;;;;;;;;-3.30;99.90;;;;;;10210504;28;85098;-50
2021/12/26 05:32:52;;;;;;;;;;;-3.30;99.90;;;;;;10210737;28;85963;-53
2021/12/26 05:37:53;;;;;;;;;;;-3.30;99.90;;;;;;10231410;23;86857;-47
2021/12/26 05:42:54;;;;;;;;;;;-3.30;99.90;;;;;;10208857;28;85981;-50
2021/12/26 05:47:55;;;;;;;;;;;-3.30;99.90;;;;;;10192444;28;86042;-48
2021/12/26 05:52:55;;;;;;;;;;;-3.30;99.90;;;;;;10209883;28;86994;-47
2021/12/26 05:57:56;;;;;;;;;;;-3.30;99.90;;;;;;10208116;28;85420;-48
2021/12/26 06:02:57;;;;;;;;;;;-3.40;99.90;;;;;;10208207;28;86689;-48
2021/12/26 06:07:58;;;;;;;;;;;-3.30;99.90;;;;;;10191256;28;86995;-49
2021/12/26 06:12:58;;;;;;;;;;;-3.20;99.90;;;;;;10208188;28;86896;-50
2021/12/26 06:18:00;;;;;;;;;;;-3.20;99.90;;;;;;10206148;28;86754;-48
2021/12/26 06:23:33;;;;;;;;;;;-3.30;99.90;;;;;;10206802;28;85461;-48
2021/12/26 06:29:12;;;;;;;;;;;-3.30;99.90;;;;;;10206131;28;85618;-48
2021/12/26 06:34:15;;;;;;;;;;;-3.30;99.90;;;;;;10207463;28;84905;-48
2021/12/26 06:39:34;;;;;;;;;;;-3.20;99.90;;;;;;10206916;28;84148;-52
2021/12/26 06:44:53;;;;;;;;;;;-3.40;99.90;;;;;;10208399;28;84575;-49
2021/12/26 06:50:05;;;;;;;;;;;-3.40;99.90;;;;;;10205384;28;85090;-49
2021/12/26 06:55:07;;;;;;;;;;;-3.40;99.90;;;;;;10206500;28;86009;-49
2021/12/26 07:00:09;;;;;;;;;;;-3.40;99.90;;;;;;10205055;28;86778;-52
2021/12/26 07:05:14;;;;;;;;;;;-3.40;99.90;;;;;;10205893;28;86114;-53
2021/12/26 07:10:27;;;;;;;;;;;-3.40;99.90;;;;;;10205922;28;86750;-47
2021/12/26 07:15:27;;;;;;;;;;;-3.40;99.90;;;;;;10205044;28;86804;-49
2021/12/26 07:20:34;;;;;;;;;;;-3.30;99.90;;;;;;10204557;28;86679;-47
2021/12/26 07:25:53;;;;;;;;;;;-3.30;99.90;;;;;;10206401;28;84539;-54
2021/12/26 07:30:56;;;;;;;;;;;-3.20;99.90;;;;;;10206490;28;84924;-50
2021/12/26 07:35:57;;;;;;;;;;;-3.20;99.90;;;;;;10204306;28;86798;-48
2021/12/26 07:41:21;;;;;;;;;;;-3.10;99.90;;;;;;10201688;28;84283;-51
2021/12/26 07:46:23;;;;;;;;;;;-3.10;99.90;;;;;;10204615;28;86541;-48
2021/12/26 07:51:24;;;;;;;;;;;-3.10;99.90;;;;;;10204819;28;87159;-47
2021/12/26 07:56:44;;;;;;;;;;;-3.00;99.90;;;;;;10203893;28;84094;-49
2021/12/26 08:02:04;;;;;;;;;;;-3.00;99.90;;;;;;10205129;28;84176;-50
2021/12/26 08:07:24;;;;;;;;;;;-2.90;99.90;;;;;;10173529;28;84857;-50
2021/12/26 08:12:25;;;;;;;;;;;-2.90;99.90;;;;;;10203011;28;85899;-49
2021/12/26 08:17:26;;;;;;;;;;;-2.80;99.90;;;;;;10204880;28;85863;-50
2021/12/26 08:22:26;;;;;;;;;;;-2.70;99.90;;;;;;10204322;28;84976;-49
2021/12/26 08:27:27;;;;;;;;;;;-2.60;99.90;;;;;;10201812;28;86074;-50
2021/12/26 08:32:30;;;;;;;;;;;-2.40;99.90;;;;;;10202632;28;85970;-49
2021/12/26 08:37:31;;;;;;;;;;;-2.40;99.90;;;;;;10204207;28;84947;-48
2021/12/26 08:42:31;;;;;;;;;;;-2.30;99.90;;;;;;10204466;28;84206;-53
2021/12/26 08:47:32;;;;;;;;;;;-2.30;99.90;;;;;;10203046;28;84945;-51
2021/12/26 08:52:32;;;;;;;;;;;-2.20;99.90;;;;;;10211380;28;85359;-50
2021/12/26 08:57:33;;;;;;;;;;;-2.20;99.90;;;;;;10211479;28;84918;-48
2021/12/26 09:02:34;;;;;;;;;;;-2.10;99.90;;;;;;10209260;28;84997;-48
2021/12/26 09:07:35;;;;;;;;;;;-1.80;99.90;;;;;;10210722;28;84879;-51
2021/12/26 09:12:36;;;;;;;;;;;-1.70;99.90;;;;;;10212024;28;84254;-50
2021/12/26 09:17:37;;;;;;;;;;;-1.70;99.90;;;;;;10210800;28;84099;-49
2021/12/26 09:22:40;;;;;;;;;;;-1.50;99.90;;;;;;10209697;28;86036;-49
2021/12/26 09:27:41;;;;;;;;;;;-1.50;99.90;;;;;;10209046;28;87059;-49
2021/12/26 09:32:43;;;;;;;;;;;-1.40;99.90;;;;;;10210861;28;84908;-53
2021/12/26 09:37:44;;;;;;;;;;;-1.40;99.90;;;;;;10210528;28;84888;-48
2021/12/26 09:42:45;;;;;;;;;;;-1.30;99.90;;;;;;10210654;28;84922;-50
2021/12/26 09:47:50;;;;;;;;;;;-1.20;99.90;;;;;;10210419;28;85008;-51
2021/12/26 09:52:53;;;;;;;;;;;-1.20;99.90;;;;;;10210550;28;84852;-54
2021/12/26 09:57:53;;;;;;;;;;;-1.10;99.90;;;;;;10209792;28;85275;-49
2021/12/26 10:03:07;;;;;;;;;;;-1.00;99.90;;;;;;10208577;28;84827;-53
2021/12/26 10:08:07;;;;;;;;;;;-1.00;99.90;;;;;;10208246;28;84909;-53
2021/12/26 10:13:08;;;;;;;;;;;-0.90;99.90;;;;;;10209636;28;84126;-52
2021/12/26 10:18:28;;;;;;;;;;;-0.90;99.90;;;;;;10206892;28;86958;-49
2021/12/26 10:23:29;;;;;;;;;;;-0.70;99.90;;;;;;10207473;28;84912;-49
2021/12/26 10:28:30;;;;;;;;;;;-0.70;99.90;;;;;;10207383;28;84099;-50
2021/12/26 10:33:46;;;;;;;;;;;-0.70;99.90;;;;;;10206628;28;85961;-52
2021/12/26 10:39:09;;;;;;;;;;;-0.60;99.90;;;;;;10206385;28;86384;-52
2021/12/26 10:44:25;;;;;;;;;;;-0.60;99.90;;;;;;10206115;28;85995;-50
2021/12/26 10:49:30;;;;;;;;;;;-0.50;99.90;;;;;;10207374;28;84964;-50
2021/12/26 10:54:31;;;;;;;;;;;-0.40;99.90;;;;;;10206820;28;84963;-50
2021/12/26 10:59:32;;;;;;;;;;;-0.30;99.90;;;;;;10207496;28;85099;-47
2021/12/26 11:04:33;;;;;;;;;;;-0.40;99.90;;;;;;10210141;28;84904;-49
2021/12/26 11:09:34;;;;;;;;;;;-0.30;99.90;;;;;;10203170;28;84923;-51
2021/12/26 11:14:55;;;;;;;;;;;-0.10;99.90;;;;;;10206307;28;83982;-48
2021/12/26 11:19:55;;;;;;;;;;;-0.10;99.90;;;;;;10202077;28;86998;-47
2021/12/26 11:24:59;;;;;;;;;;;0.00;99.90;;;;;;10205125;28;84967;-50
2021/12/26 11:29:59;;;;;;;;;;;0.20;99.90;;;;;;10205312;28;84900;-47
2021/12/26 11:35:00;;;;;;;;;;;0.20;99.90;;;;;;10204232;28;84821;-52
2021/12/26 11:40:01;;;;;;;;;;;0.30;99.90;;;;;;10217752;23;85395;-52
2021/12/26 11:45:24;;;;;;;;;;;0.40;99.90;;;;;;10201570;28;84088;-57
2021/12/26 11:50:53;;;;;;;;;;;0.30;99.90;;;;;;10204794;28;84582;-54
2021/12/26 11:56:32;;;;;;;;;;;0.40;99.90;;;;;;10203977;28;85453;-57
2021/12/26 12:01:34;;;;;;;;;;;0.40;99.90;;;;;;10201795;28;86063;-52
2021/12/26 12:06:35;;;;;;;;;;;0.50;99.90;;;;;;10203450;28;85948;-56
2021/12/26 12:11:55;;;;;;;;;;;0.60;99.90;;;;;;10204489;28;84890;-54
2021/12/26 12:17:12;;;;;;;;;;;0.80;99.90;;;;;;10204701;28;84422;-53
2021/12/26 12:22:12;;;;;;;;;;;0.90;99.90;;;;;;10202921;28;84954;-51
2021/12/26 12:27:13;;;;;;;;;;;1.10;99.90;;;;;;10202631;28;84963;-52
2021/12/26 12:32:15;;;;;;;;;;;1.10;99.90;;;;;;10203191;28;84114;-53
2021/12/26 12:37:35;;;;;;;;;;;1.20;99.90;;;;;;10203657;28;84910;-50
2021/12/26 12:42:36;;;;;;;;;;;1.40;99.90;;;;;;10202186;28;84677;-51
2021/12/26 12:47:37;;;;;;;;;;;1.30;99.90;;;;;;10202314;28;84112;-50
2021/12/26 12:52:38;;;;;;;;;;;1.40;99.90;;;;;;10205141;28;84928;-50
2021/12/26 12:57:41;;;;;;;;;;;1.50;99.90;;;;;;10202258;28;85061;-54
2021/12/26 13:02:41;;;;;;;;;;;1.30;99.90;;;;;;10201189;28;85000;-53
2021/12/26 13:07:42;;;;;;;;;;;1.40;99.90;;;;;;10202006;28;84866;-50
2021/12/26 13:12:43;;;;;;;;;;;1.60;99.90;;;;;;10201331;28;85031;-55
2021/12/26 13:17:45;;;;;;;;;;;1.70;99.90;;;;;;10203068;28;84831;-54
2021/12/26 13:22:56;;;;;;;;;;;1.90;99.90;;;;;;10202671;28;84814;-54
2021/12/26 13:27:57;;;;;;;;;;;2.00;99.90;;;;;;10201959;28;84877;-56
2021/12/26 13:32:58;;;;;;;;;;;1.90;99.90;;;;;;10201799;28;84923;-57
2021/12/26 13:37:59;;;;;;;;;;;1.90;99.90;;;;;;10208348;28;84900;-56
2021/12/26 13:42:59;;;;;;;;;;;2.10;99.90;;;;;;10208003;28;84261;-52
2021/12/26 13:48:00;;;;;;;;;;;2.00;99.90;;;;;;10208678;28;84402;-52
2021/12/26 13:53:05;;;;;;;;;;;2.00;99.90;;;;;;10208683;28;84884;-56
2021/12/26 13:58:09;;;;;;;;;;;1.90;99.90;;;;;;10207326;28;84800;-51
2021/12/26 14:03:10;;;;;;;;;;;1.90;99.90;;;;;;10208213;28;84116;-53
2021/12/26 14:08:14;;;;;;;;;;;1.80;99.90;;;;;;10208032;28;85677;-55
2021/12/26 14:13:19;;;;;;;;;;;1.70;99.90;;;;;;10207857;28;84865;-55
2021/12/26 14:18:23;;;;;;;;;;;1.70;99.90;;;;;;10205197;28;84503;-55
2021/12/26 14:23:40;;;;;;;;;;;1.80;99.90;;;;;;10204251;28;84133;-54
2021/12/26 14:28:42;;;;;;;;;;;1.90;99.90;;;;;;10205254;28;84139;-54
2021/12/26 14:33:47;;;;;;;;;;;2.00;99.90;;;;;;10207407;28;85019;-55
2021/12/26 14:38:50;;;;;;;;;;;1.90;99.90;;;;;;10204838;28;84142;-55
2021/12/26 14:43:52;;;;;;;;;;;1.80;99.90;;;;;;10205570;28;84981;-53
2021/12/26 14:48:52;;;;;;;;;;;1.80;99.90;;;;;;10204726;28;85010;-54
2021/12/26 14:53:58;;;;;;;;;;;1.80;99.90;;;;;;10205928;28;85262;-55
2021/12/26 14:58:58;;;;;;;;;;;1.90;99.90;;;;;;10203522;28;84712;-55
2021/12/26 15:04:06;;;;;;;;;;;1.80;99.90;;;;;;10201922;28;85092;-54
2021/12/26 15:09:07;;;;;;;;;;;1.80;99.90;;;;;;10203641;28;84850;-52
2021/12/26 15:14:19;;;;;;;;;;;1.90;99.90;;;;;;10203455;28;84957;-55
2021/12/26 15:19:20;;;;;;;;;;;1.80;99.90;;;;;;10204835;28;85040;-51
2021/12/26 15:24:21;;;;;;;;;;;1.80;99.90;;;;;;10204571;28;85030;-51
2021/12/26 15:29:25;;;;;;;;;;;1.80;99.90;;;;;;10204076;28;84977;-55
2021/12/26 15:34:25;;;;;;;;;;;1.70;99.90;;;;;;10201882;28;85088;-53
2021/12/26 15:39:26;;;;;;;;;;;1.70;99.90;;;;;;10202214;28;84472;-50
2021/12/26 15:44:26;;;;;;;;;;;1.70;99.90;;;;;;10202748;28;84415;-54
2021/12/26 15:49:27;;;;;;;;;;;1.70;99.90;;;;;;10200794;28;84911;-55
2021/12/26 15:54:28;;;;;;;;;;;1.70;99.90;;;;;;10202447;28;84212;-54
2021/12/26 15:59:28;;;;;;;;;;;1.60;99.90;;;;;;10202438;28;85200;-53
2021/12/26 16:04:29;;;;;;;;;;;1.70;99.90;;;;;;10201104;28;85067;-54
2021/12/26 16:09:29;;;;;;;;;;;1.60;99.90;;;;;;10199279;28;85237;-54
2021/12/26 16:14:30;;;;;;;;;;;1.50;99.90;;;;;;10201437;28;84788;-56
2021/12/26 16:19:31;;;;;;;;;;;1.60;99.90;;;;;;10201540;28;86648;-53
2021/12/26 16:24:31;;;;;;;;;;;1.60;99.90;;;;;;10200059;28;84035;-55
2021/12/26 16:29:32;;;;;;;;;;;1.60;99.90;;;;;;10200099;28;84190;-58
2021/12/26 16:34:34;;;;;;;;;;;1.70;99.90;;;;;;10202072;28;84926;-54
2021/12/26 16:39:34;;;;;;;;;;;1.70;99.90;;;;;;10200517;28;84909;-52
2021/12/26 16:44:35;;;;;;;;;;;1.70;99.90;;;;;;10202121;28;84024;-55
2021/12/26 16:49:35;;;;;;;;;;;1.70;99.90;;;;;;10200735;28;84455;-50
2021/12/26 16:54:36;;;;;;;;;;;1.70;99.90;;;;;;10201370;28;84352;-55
2021/12/26 16:59:36;;;;;;;;;;;1.80;99.90;;;;;;10199903;28;84775;-54
2021/12/26 17:04:37;;;;;;;;;;;1.80;99.90;;;;;;10200399;28;85017;-56
2021/12/26 17:09:40;;;;;;;;;;;1.70;99.90;;;;;;10202608;28;84918;-56
2021/12/26 17:14:41;;;;;;;;;;;1.80;99.90;;;;;;10207560;28;84939;-51
2021/12/26 17:19:41;;;;;;;;;;;1.80;99.90;;;;;;10206425;28;84920;-51
2021/12/26 17:24:42;;;;;;;;;;;1.80;99.90;;;;;;10205954;28;84897;-54
2021/12/26 17:29:42;;;;;;;;;;;1.80;99.90;;;;;;10206947;28;84016;-55
2021/12/26 17:34:43;;;;;;;;;;;1.80;99.90;;;;;;10207425;28;84059;-51
2021/12/26 17:39:45;;;;;;;;;;;1.80;99.90;;;;;;10218911;23;84969;-51
2021/12/26 17:44:46;;;;;;;;;;;1.80;99.90;;;;;;10168839;28;86117;-49
2021/12/26 17:49:47;;;;;;;;;;;1.80;99.90;;;;;;10151314;28;85083;-53
2021/12/26 17:54:48;;;;;;;;;;;1.90;99.90;;;;;;10168897;28;84132;-51
2021/12/26 17:59:49;;;;;;;;;;;1.90;99.90;;;;;;10168514;28;84826;-50
2021/12/26 18:04:49;;;;;;;;;;;1.80;99.90;;;;;;10167607;28;87167;-51
2021/12/26 18:09:50;;;;;;;;;;;1.80;99.90;;;;;;10168348;28;84983;-49
2021/12/26 18:14:50;;;;;;;;;;;1.80;99.90;;;;;;10168146;28;84145;-50
2021/12/26 18:19:51;;;;;;;;;;;1.80;99.90;;;;;;10165621;28;85974;-47
2021/12/26 18:24:52;;;;;;;;;;;1.80;99.90;;;;;;10168011;28;84677;-48
2021/12/26 18:29:53;;;;;;;;;;;1.90;99.90;;;;;;10167082;28;84164;-52
2021/12/26 18:34:53;;;;;;;;;;;1.90;99.90;;;;;;10167424;28;84836;-52
2021/12/26 18:39:54;;;;;;;;;;;1.90;99.90;;;;;;10167458;28;85031;-48
2021/12/26 18:44:54;;;;;;;;;;;1.90;99.90;;;;;;10168430;28;84919;-47
2021/12/26 18:49:55;;;;;;;;;;;1.90;99.90;;;;;;10166261;28;83948;-47
2021/12/26 18:54:56;;;;;;;;;;;1.90;99.90;;;;;;10166943;28;84914;-50
2021/12/26 18:59:56;;;;;;;;;;;1.90;99.90;;;;;;10167053;28;84806;-53
2021/12/26 19:04:57;;;;;;;;;;;1.90;99.90;;;;;;10166088;28;85019;-52
2021/12/26 19:09:57;;;;;;;;;;;1.90;99.90;;;;;;10165337;28;85995;-53
2021/12/26 19:14:58;;;;;;;;;;;2.00;99.90;;;;;;10167284;28;84190;-49
2021/12/26 19:19:58;;;;;;;;;;;2.00;99.90;;;;;;10165846;28;85049;-50
2021/12/26 19:24:59;;;;;;;;;;;1.90;99.90;;;;;;10164868;28;84530;-51
2021/12/26 19:30:00;;;;;;;;;;;2.00;99.90;;;;;;10166394;28;84880;-50
2021/12/26 19:35:01;;;;;;;;;;;2.10;99.90;;;;;;10164831;28;84909;-50
2021/12/26 19:40:02;;;;;;;;;;;2.10;99.90;;;;;;10163079;28;87946;-48
2021/12/26 19:45:03;;;;;;;;;;;2.00;99.90;;;;;;10165677;28;84912;-49
2021/12/26 19:50:04;;;;;;;;;;;2.00;99.90;;;;;;10165422;28;84124;-50
2021/12/26 19:55:05;;;;;;;;;;;2.00;99.90;;;;;;10166038;28;84883;-49
2021/12/26 20:00:09;;;;;;;;;;;2.00;99.90;;;;;;10158301;28;84886;-51
2021/12/26 20:05:10;;;;;;;;;;;2.10;99.90;;;;;;10159877;28;85964;-51
2021/12/26 20:10:11;;;;;;;;;;;2.10;99.90;;;;;;10171948;28;84961;-48
2021/12/26 20:15:13;;;;;;;;;;;2.10;99.90;;;;;;10162300;28;84245;-50
2021/12/26 20:20:13;;;;;;;;;;;2.10;99.90;;;;;;10162722;28;84183;-49
2021/12/26 20:25:14;;;;;;;;;;;2.10;99.90;;;;;;10163805;28;84684;-50
2021/12/26 20:30:15;;;;;;;;;;;2.10;99.90;;;;;;10161542;28;85137;-46
2021/12/26 20:35:15;;;;;;;;;;;2.10;99.90;;;;;;10162361;28;84874;-47
2021/12/26 20:40:16;;;;;;;;;;;2.10;99.90;;;;;;10162875;28;85066;-48
2021/12/26 20:45:16;;;;;;;;;;;2.20;99.90;;;;;;10162686;28;84731;-50
2021/12/26 20:50:17;;;;;;;;;;;2.20;99.90;;;;;;10163542;28;84290;-48
2021/12/26 20:55:18;;;;;;;;;;;2.30;99.90;;;;;;10159927;28;84705;-47
2021/12/26 21:00:22;;;;;;;;;;;2.30;99.90;;;;;;10156192;28;85065;-47
2021/12/26 21:05:23;;;;;;;;;;;2.30;99.90;;;;;;10159298;28;84690;-50
2021/12/26 21:10:24;;;;;;;;;;;2.40;99.90;;;;;;10161396;28;84192;-47
2021/12/26 21:15:24;;;;;;;;;;;2.40;99.90;;;;;;10161373;28;84130;-44
2021/12/26 21:20:25;;;;;;;;;;;2.40;99.90;;;;;;10161399;28;84261;-47
2021/12/26 21:25:25;;;;;;;;;;;2.40;99.90;;;;;;10153824;28;84812;-46
2021/12/26 21:30:26;;;;;;;;;;;2.50;99.90;;;;;;10160024;28;85904;-48
2021/12/26 21:35:27;;;;;;;;;;;2.40;99.90;;;;;;10159901;28;84937;-48
2021/12/26 21:40:27;;;;;;;;;;;2.40;99.90;;;;;;10161003;28;84865;-50
2021/12/26 21:45:28;;;;;;;;;;;2.40;99.90;;;;;;10159389;28;84936;-47
2021/12/26 21:50:31;;;;;;;;;;;2.50;99.90;;;;;;10129605;28;84774;-53
2021/12/26 21:55:32;;;;;;;;;;;2.50;99.90;;;;;;10164438;28;85349;-50
2021/12/26 22:00:34;;;;;;;;;;;2.60;99.90;;;;;;10168156;28;84131;-47
2021/12/26 22:05:35;;;;;;;;;;;2.60;99.90;;;;;;10167447;28;85067;-49
2021/12/26 22:10:35;;;;;;;;;;;2.50;99.90;;;;;;10168660;28;83980;-47
2021/12/26 22:15:36;;;;;;;;;;;2.50;99.90;;;;;;10167947;28;84082;-48
2021/12/26 22:20:37;;;;;;;;;;;2.50;99.90;;;;;;10168903;28;84919;-46
2021/12/26 22:25:39;;;;;;;;;;;2.50;99.90;;;;;;10168516;28;85970;-49
2021/12/26 22:30:40;;;;;;;;;;;2.50;99.90;;;;;;10169072;28;85035;-47
2021/12/26 22:35:41;;;;;;;;;;;2.50;99.90;;;;;;10166673;28;84193;-46
2021/12/26 22:40:42;;;;;;;;;;;2.50;99.90;;;;;;10169121;28;84345;-46
2021/12/26 22:45:42;;;;;;;;;;;2.50;99.90;;;;;;10167604;28;84837;-50
2021/12/26 22:50:44;;;;;;;;;;;2.60;99.90;;;;;;10166988;28;84179;-46
2021/12/26 22:55:45;;;;;;;;;;;2.60;99.90;;;;;;10164790;28;87093;-46
2021/12/26 23:00:50;;;;;;;;;;;2.60;99.90;;;;;;10166557;28;84841;-46
2021/12/26 23:05:55;;;;;;;;;;;2.40;99.90;;;;;;10163938;28;87046;-48
2021/12/26 23:10:56;;;;;;;;;;;2.50;99.90;;;;;;10166208;28;84034;-47
2021/12/26 23:15:58;;;;;;;;;;;2.50;99.90;;;;;;10166564;28;84765;-49
2021/12/26 23:21:00;;;;;;;;;;;2.40;99.90;;;;;;10166092;28;84994;-46
2021/12/26 23:26:01;;;;;;;;;;;2.30;99.90;;;;;;10165669;28;84151;-48
2021/12/26 23:31:03;;;;;;;;;;;2.30;99.90;;;;;;10163626;28;86078;-46
2021/12/26 23:36:03;;;;;;;;;;;2.40;99.90;;;;;;10165651;28;84845;-50
2021/12/26 23:41:20;;;;;;;;;;;2.40;99.90;;;;;;10234649;23;84495;-53
2021/12/26 23:46:28;;;;;;;;;;;2.50;99.90;;;;;;10282234;28;86211;-51
2021/12/26 23:51:29;;;;;;;;;;;2.50;99.90;;;;;;10263121;28;84844;-53
2021/12/26 23:56:30;;;;;;;;;;;2.50;99.90;;;;;;10243196;28;84982;-51
